sensor_id;sensor_type;location;lat;lon;timestamp;pressure;altitude;pressure_sealevel;temperature;humidity
28665;BME280;15850;47.524;7.814;2022-08-03T00:00:37;97531.69;;;16.57;100.00
28665;BME280;15850;47.524;7.814;2022-08-03T00:03:04;97755.44;;;17.96;100.00
28665;BME280;15850;47.524;7.814;2022-08-03T00:05:30;97590.06;;;16.91;100.00
28665;BME280;15850;47.524;7.814;2022-08-03T00:07:55;97745.97;;;17.90;100.00
28665;BME280;15850;47.524;7.814;2022-08-03T00:10:21;97531.66;;;16.53;100.00
28665;BME280;15850;47.524;7.814;2022-08-03T00:12:46;97753.88;;;17.95;100.00
28665;BME280;15850;47.524;7.814;2022-08-03T00:15:12;97751.06;;;17.88;100.00
28665;BME280;15850;47.524;7.814;2022-08-03T00:17:37;97753.03;;;17.91;100.00
28665;BME280;15850;47.524;7.814;2022-08-03T00:20:05;97726.09;;;17.63;100.00
28665;BME280;15850;47.524;7.814;2022-08-03T00:22:33;97711.84;;;17.50;100.00
28665;BME280;15850;47.524;7.814;2022-08-03T00:24:59;97749.44;;;17.83;100.00
28665;BME280;15850;47.524;7.814;2022-08-03T00:27:24;97704.03;;;17.52;100.00
28665;BME280;15850;47.524;7.814;2022-08-03T00:29:50;97683.03;;;17.30;100.00
28665;BME280;15850;47.524;7.814;2022-08-03T00:32:15;97731.59;;;17.59;100.00
28665;BME280;15850;47.524;7.814;2022-08-03T00:34:41;97530.50;;;16.10;100.00
28665;BME280;15850;47.524;7.814;2022-08-03T00:37:07;97590.75;;;16.36;100.00
28665;BME280;15850;47.524;7.814;2022-08-03T00:39:33;97649.97;;;16.75;100.00
28665;BME280;15850;47.524;7.814;2022-08-03T00:42:01;97726.88;;;17.12;100.00
28665;BME280;15850;47.524;7.814;2022-08-03T00:44:27;97750.69;;;17.42;100.00
28665;BME280;15850;47.524;7.814;2022-08-03T00:46:53;97754.16;;;17.35;100.00
28665;BME280;15850;47.524;7.814;2022-08-03T00:49:18;97754.06;;;17.24;100.00
28665;BME280;15850;47.524;7.814;2022-08-03T00:51:44;97760.25;;;17.14;100.00
28665;BME280;15850;47.524;7.814;2022-08-03T00:54:11;97381.16;;;14.65;100.00
28665;BME280;15850;47.524;7.814;2022-08-03T00:56:37;97383.19;;;14.72;100.00
28665;BME280;15850;47.524;7.814;2022-08-03T00:59:03;97302.66;;;14.16;100.00
28665;BME280;15850;47.524;7.814;2022-08-03T01:01:28;97758.25;;;17.07;100.00
28665;BME280;15850;47.524;7.814;2022-08-03T01:03:54;97759.38;;;17.03;100.00
28665;BME280;15850;47.524;7.814;2022-08-03T01:06:24;97754.25;;;17.01;100.00
28665;BME280;15850;47.524;7.814;2022-08-03T01:08:57;97670.53;;;16.54;100.00
28665;BME280;15850;47.524;7.814;2022-08-03T01:11:31;97758.59;;;17.02;100.00
28665;BME280;15850;47.524;7.814;2022-08-03T01:14:05;97757.44;;;17.03;100.00
28665;BME280;15850;47.524;7.814;2022-08-03T01:16:38;97759.88;;;17.12;100.00
28665;BME280;15850;47.524;7.814;2022-08-03T01:19:19;97754.81;;;17.18;100.00
28665;BME280;15850;47.524;7.814;2022-08-03T01:21:54;97307.91;;;14.28;100.00
28665;BME280;15850;47.524;7.814;2022-08-03T01:24:34;97505.63;;;15.28;100.00
28665;BME280;15850;47.524;7.814;2022-08-03T01:27:11;97629.91;;;16.30;100.00
28665;BME280;15850;47.524;7.814;2022-08-03T01:29:56;97751.47;;;16.98;100.00
28665;BME280;15850;47.524;7.814;2022-08-03T01:32:28;97747.84;;;16.86;100.00
28665;BME280;15850;47.524;7.814;2022-08-03T01:35:01;97756.06;;;16.86;100.00
28665;BME280;15850;47.524;7.814;2022-08-03T01:37:34;97669.09;;;16.27;100.00
28665;BME280;15850;47.524;7.814;2022-08-03T01:40:02;97671.94;;;16.37;100.00
28665;BME280;15850;47.524;7.814;2022-08-03T01:42:29;97745.13;;;16.90;100.00
28665;BME280;15850;47.524;7.814;2022-08-03T01:44:58;97517.06;;;15.34;100.00
28665;BME280;15850;47.524;7.814;2022-08-03T01:47:26;97744.97;;;16.76;100.00
28665;BME280;15850;47.524;7.814;2022-08-03T01:49:54;97654.88;;;16.21;100.00
28665;BME280;15850;47.524;7.814;2022-08-03T01:52:22;97741.91;;;16.84;100.00
28665;BME280;15850;47.524;7.814;2022-08-03T01:54:51;97751.69;;;16.82;100.00
28665;BME280;15850;47.524;7.814;2022-08-03T01:57:18;97743.91;;;16.87;100.00
28665;BME280;15850;47.524;7.814;2022-08-03T01:59:45;97746.75;;;16.98;100.00
28665;BME280;15850;47.524;7.814;2022-08-03T02:02:14;97600.34;;;15.82;100.00
28665;BME280;15850;47.524;7.814;2022-08-03T02:04:41;97749.03;;;16.89;100.00
28665;BME280;15850;47.524;7.814;2022-08-03T02:07:08;97359.69;;;14.14;100.00
28665;BME280;15850;47.524;7.814;2022-08-03T02:09:37;97736.13;;;16.59;100.00
28665;BME280;15850;47.524;7.814;2022-08-03T02:12:07;97741.53;;;16.52;100.00
28665;BME280;15850;47.524;7.814;2022-08-03T02:14:33;97744.38;;;16.59;100.00
28665;BME280;15850;47.524;7.814;2022-08-03T02:17:00;97745.47;;;16.55;100.00
28665;BME280;15850;47.524;7.814;2022-08-03T02:19:27;97456.31;;;14.68;100.00
28665;BME280;15850;47.524;7.814;2022-08-03T02:21:56;97531.50;;;15.31;100.00
28665;BME280;15850;47.524;7.814;2022-08-03T02:24:22;97601.72;;;15.69;100.00
28665;BME280;15850;47.524;7.814;2022-08-03T02:26:50;97745.38;;;16.44;100.00
28665;BME280;15850;47.524;7.814;2022-08-03T02:29:20;97744.13;;;16.38;100.00
28665;BME280;15850;47.524;7.814;2022-08-03T02:31:46;97750.13;;;16.47;100.00
28665;BME280;15850;47.524;7.814;2022-08-03T02:34:14;97740.31;;;16.46;100.00
28665;BME280;15850;47.524;7.814;2022-08-03T02:36:47;97742.06;;;16.31;100.00
28665;BME280;15850;47.524;7.814;2022-08-03T02:39:16;97733.72;;;16.20;100.00
28665;BME280;15850;47.524;7.814;2022-08-03T02:41:48;97732.72;;;16.36;100.00
28665;BME280;15850;47.524;7.814;2022-08-03T02:44:17;97345.59;;;13.85;100.00
28665;BME280;15850;47.524;7.814;2022-08-03T02:46:48;97734.69;;;16.39;100.00
28665;BME280;15850;47.524;7.814;2022-08-03T02:49:17;97738.31;;;16.43;100.00
28665;BME280;15850;47.524;7.814;2022-08-03T02:51:46;97731.59;;;16.40;100.00
28665;BME280;15850;47.524;7.814;2022-08-03T02:54:14;97443.38;;;14.42;100.00
28665;BME280;15850;47.524;7.814;2022-08-03T02:56:42;97732.22;;;16.27;100.00
28665;BME280;15850;47.524;7.814;2022-08-03T02:59:09;97731.16;;;16.38;100.00
28665;BME280;15850;47.524;7.814;2022-08-03T03:01:37;97441.75;;;14.37;100.00
28665;BME280;15850;47.524;7.814;2022-08-03T03:04:04;97500.00;;;14.61;100.00
28665;BME280;15850;47.524;7.814;2022-08-03T03:06:30;97304.53;;;13.59;100.00
28665;BME280;15850;47.524;7.814;2022-08-03T03:08:58;97731.75;;;16.21;100.00
28665;BME280;15850;47.524;7.814;2022-08-03T03:11:25;97724.59;;;16.13;100.00
28665;BME280;15850;47.524;7.814;2022-08-03T03:13:51;97342.69;;;13.52;100.00
28665;BME280;15850;47.524;7.814;2022-08-03T03:16:18;97724.03;;;16.00;100.00
28665;BME280;15850;47.524;7.814;2022-08-03T03:18:45;97734.63;;;16.02;100.00
28665;BME280;15850;47.524;7.814;2022-08-03T03:21:14;97470.53;;;14.27;100.00
28665;BME280;15850;47.524;7.814;2022-08-03T03:23:40;97727.78;;;15.88;100.00
28665;BME280;15850;47.524;7.814;2022-08-03T03:26:08;97731.94;;;16.05;100.00
28665;BME280;15850;47.524;7.814;2022-08-03T03:28:34;97682.44;;;15.68;100.00
28665;BME280;15850;47.524;7.814;2022-08-03T03:31:01;97741.19;;;15.93;100.00
28665;BME280;15850;47.524;7.814;2022-08-03T03:33:26;97768.72;;;16.01;100.00
28665;BME280;15850;47.524;7.814;2022-08-03T03:35:52;97712.81;;;15.82;100.00
28665;BME280;15850;47.524;7.814;2022-08-03T03:38:18;97718.34;;;15.86;100.00
28665;BME280;15850;47.524;7.814;2022-08-03T03:40:44;97737.88;;;15.81;100.00
28665;BME280;15850;47.524;7.814;2022-08-03T03:43:12;97461.16;;;14.05;100.00
28665;BME280;15850;47.524;7.814;2022-08-03T03:45:39;97717.84;;;15.77;100.00
28665;BME280;15850;47.524;7.814;2022-08-03T03:48:06;97711.09;;;15.70;100.00
28665;BME280;15850;47.524;7.814;2022-08-03T03:50:33;97722.47;;;15.72;100.00
28665;BME280;15850;47.524;7.814;2022-08-03T03:53:00;97662.69;;;15.32;100.00
28665;BME280;15850;47.524;7.814;2022-08-03T03:55:26;97589.59;;;14.87;100.00
28665;BME280;15850;47.524;7.814;2022-08-03T03:57:51;97695.34;;;15.41;100.00
28665;BME280;15850;47.524;7.814;2022-08-03T04:00:19;97704.84;;;15.47;100.00
28665;BME280;15850;47.524;7.814;2022-08-03T04:02:45;97739.88;;;15.84;100.00
28665;BME280;15850;47.524;7.814;2022-08-03T04:05:11;97734.03;;;15.62;100.00
28665;BME280;15850;47.524;7.814;2022-08-03T04:07:58;97696.81;;;15.35;100.00
28665;BME280;15850;47.524;7.814;2022-08-03T04:10:27;97743.56;;;15.68;100.00
28665;BME280;15850;47.524;7.814;2022-08-03T04:12:56;97739.34;;;15.74;100.00
28665;BME280;15850;47.524;7.814;2022-08-03T04:15:27;97633.09;;;14.92;100.00
28665;BME280;15850;47.524;7.814;2022-08-03T04:17:54;97746.31;;;15.68;100.00
28665;BME280;15850;47.524;7.814;2022-08-03T04:20:22;97747.47;;;15.67;100.00
28665;BME280;15850;47.524;7.814;2022-08-03T04:22:51;97626.34;;;14.86;100.00
28665;BME280;15850;47.524;7.814;2022-08-03T04:25:20;97701.06;;;15.59;100.00
28665;BME280;15850;47.524;7.814;2022-08-03T04:27:49;97754.44;;;15.88;100.00
28665;BME280;15850;47.524;7.814;2022-08-03T04:30:16;97752.47;;;15.88;100.00
28665;BME280;15850;47.524;7.814;2022-08-03T04:32:44;97749.88;;;15.72;100.00
28665;BME280;15850;47.524;7.814;2022-08-03T04:35:11;97529.72;;;14.39;100.00
28665;BME280;15850;47.524;7.814;2022-08-03T04:37:38;97748.94;;;15.88;100.00
28665;BME280;15850;47.524;7.814;2022-08-03T04:40:07;97755.56;;;15.83;100.00
28665;BME280;15850;47.524;7.814;2022-08-03T04:42:34;97757.19;;;15.88;100.00
28665;BME280;15850;47.524;7.814;2022-08-03T04:45:02;97694.06;;;15.35;100.00
28665;BME280;15850;47.524;7.814;2022-08-03T04:47:30;97784.72;;;15.95;100.00
28665;BME280;15850;47.524;7.814;2022-08-03T04:49:58;97701.47;;;15.57;100.00
28665;BME280;15850;47.524;7.814;2022-08-03T04:52:24;97688.34;;;15.43;100.00
28665;BME280;15850;47.524;7.814;2022-08-03T04:54:50;97773.19;;;16.12;100.00
28665;BME280;15850;47.524;7.814;2022-08-03T04:57:15;97473.91;;;14.44;100.00
28665;BME280;15850;47.524;7.814;2022-08-03T04:59:41;97764.66;;;16.51;100.00
28665;BME280;15850;47.524;7.814;2022-08-03T05:02:07;97763.72;;;16.70;100.00
28665;BME280;15850;47.524;7.814;2022-08-03T05:04:34;97768.53;;;16.77;100.00
28665;BME280;15850;47.524;7.814;2022-08-03T05:07:01;97714.91;;;16.56;100.00
28665;BME280;15850;47.524;7.814;2022-08-03T05:09:26;97772.34;;;17.02;100.00
28665;BME280;15850;47.524;7.814;2022-08-03T05:11:52;97770.09;;;17.15;100.00
28665;BME280;15850;47.524;7.814;2022-08-03T05:14:17;97720.81;;;16.92;100.00
28665;BME280;15850;47.524;7.814;2022-08-03T05:16:43;97755.56;;;17.14;100.00
28665;BME280;15850;47.524;7.814;2022-08-03T05:19:08;97693.19;;;16.78;100.00
28665;BME280;15850;47.524;7.814;2022-08-03T05:21:34;97759.75;;;17.42;100.00
28665;BME280;15850;47.524;7.814;2022-08-03T05:24:01;97760.09;;;17.37;100.00
28665;BME280;15850;47.524;7.814;2022-08-03T05:26:26;97766.06;;;17.46;100.00
28665;BME280;15850;47.524;7.814;2022-08-03T05:29:03;97765.31;;;17.49;100.00
28665;BME280;15850;47.524;7.814;2022-08-03T05:31:29;97600.31;;;16.53;100.00
28665;BME280;15850;47.524;7.814;2022-08-03T05:33:55;97738.84;;;17.34;100.00
28665;BME280;15850;47.524;7.814;2022-08-03T05:36:21;97771.88;;;17.82;100.00
28665;BME280;15850;47.524;7.814;2022-08-03T05:38:47;97770.72;;;17.87;100.00
28665;BME280;15850;47.524;7.814;2022-08-03T05:41:14;97511.50;;;16.35;100.00
28665;BME280;15850;47.524;7.814;2022-08-03T05:43:40;97709.56;;;17.56;100.00
28665;BME280;15850;47.524;7.814;2022-08-03T05:46:05;97751.59;;;18.12;100.00
28665;BME280;15850;47.524;7.814;2022-08-03T05:48:31;97766.66;;;18.32;100.00
28665;BME280;15850;47.524;7.814;2022-08-03T05:50:56;97760.00;;;18.44;100.00
28665;BME280;15850;47.524;7.814;2022-08-03T05:53:22;97682.72;;;18.04;100.00
28665;BME280;15850;47.524;7.814;2022-08-03T05:55:47;97760.09;;;18.62;100.00
28665;BME280;15850;47.524;7.814;2022-08-03T05:58:14;97708.00;;;18.28;100.00
28665;BME280;15850;47.524;7.814;2022-08-03T06:00:40;97779.47;;;18.87;100.00
28665;BME280;15850;47.524;7.814;2022-08-03T06:03:05;97456.31;;;17.13;100.00
28665;BME280;15850;47.524;7.814;2022-08-03T06:05:31;97763.81;;;19.37;100.00
28665;BME280;15850;47.524;7.814;2022-08-03T06:07:56;97760.66;;;19.49;100.00
28665;BME280;15850;47.524;7.814;2022-08-03T06:10:22;97761.47;;;19.57;100.00
28665;BME280;15850;47.524;7.814;2022-08-03T06:12:48;97761.47;;;19.57;100.00
28665;BME280;15850;47.524;7.814;2022-08-03T06:15:15;97762.25;;;19.54;100.00
28665;BME280;15850;47.524;7.814;2022-08-03T06:17:45;97640.88;;;18.90;100.00
28665;BME280;15850;47.524;7.814;2022-08-03T06:20:11;97758.28;;;19.91;100.00
28665;BME280;15850;47.524;7.814;2022-08-03T06:22:36;97661.34;;;19.14;100.00
28665;BME280;15850;47.524;7.814;2022-08-03T06:25:02;97759.91;;;19.70;100.00
28665;BME280;15850;47.524;7.814;2022-08-03T06:27:28;97644.03;;;19.02;100.00
28665;BME280;15850;47.524;7.814;2022-08-03T06:29:53;97757.09;;;19.95;100.00
28665;BME280;15850;47.524;7.814;2022-08-03T06:32:20;97699.16;;;19.81;100.00
28665;BME280;15850;47.524;7.814;2022-08-03T06:34:46;97692.03;;;19.87;100.00
28665;BME280;15850;47.524;7.814;2022-08-03T06:37:11;97750.66;;;20.41;100.00
28665;BME280;15850;47.524;7.814;2022-08-03T06:39:37;97640.41;;;19.81;100.00
28665;BME280;15850;47.524;7.814;2022-08-03T06:42:03;97757.72;;;20.57;100.00
28665;BME280;15850;47.524;7.814;2022-08-03T06:44:28;97753.00;;;20.57;100.00
28665;BME280;15850;47.524;7.814;2022-08-03T06:46:54;97759.69;;;20.60;100.00
28665;BME280;15850;47.524;7.814;2022-08-03T06:49:21;97757.22;;;20.80;100.00
28665;BME280;15850;47.524;7.814;2022-08-03T06:51:47;97675.56;;;20.61;100.00
28665;BME280;15850;47.524;7.814;2022-08-03T06:54:12;97726.31;;;20.92;100.00
28665;BME280;15850;47.524;7.814;2022-08-03T06:56:38;97683.31;;;20.87;100.00
28665;BME280;15850;47.524;7.814;2022-08-03T06:59:04;97752.88;;;21.42;100.00
28665;BME280;15850;47.524;7.814;2022-08-03T07:01:29;97743.78;;;21.41;100.00
28665;BME280;15850;47.524;7.814;2022-08-03T07:03:55;97745.56;;;21.69;100.00
28665;BME280;15850;47.524;7.814;2022-08-03T07:06:21;97570.13;;;20.62;100.00
28665;BME280;15850;47.524;7.814;2022-08-03T07:08:47;97667.19;;;21.27;100.00
28665;BME280;15850;47.524;7.814;2022-08-03T07:11:13;97737.16;;;22.14;100.00
28665;BME280;15850;47.524;7.814;2022-08-03T07:13:39;97742.19;;;22.30;100.00
28665;BME280;15850;47.524;7.814;2022-08-03T07:16:04;97748.94;;;22.29;100.00
28665;BME280;15850;47.524;7.814;2022-08-03T07:18:30;97699.75;;;21.99;100.00
28665;BME280;15850;47.524;7.814;2022-08-03T07:20:56;97709.13;;;22.12;100.00
28665;BME280;15850;47.524;7.814;2022-08-03T07:23:23;97745.69;;;22.65;100.00
28665;BME280;15850;47.524;7.814;2022-08-03T07:25:49;97695.59;;;22.52;100.00
28665;BME280;15850;47.524;7.814;2022-08-03T07:28:14;97716.19;;;22.82;100.00
28665;BME280;15850;47.524;7.814;2022-08-03T07:30:40;97643.41;;;22.43;100.00
28665;BME280;15850;47.524;7.814;2022-08-03T07:33:05;97740.56;;;23.25;100.00
28665;BME280;15850;47.524;7.814;2022-08-03T07:35:31;97641.75;;;22.77;100.00
28665;BME280;15850;47.524;7.814;2022-08-03T07:37:56;97690.44;;;23.08;100.00
28665;BME280;15850;47.524;7.814;2022-08-03T07:40:23;97745.63;;;23.53;100.00
28665;BME280;15850;47.524;7.814;2022-08-03T07:42:49;97742.72;;;23.60;100.00
28665;BME280;15850;47.524;7.814;2022-08-03T07:45:15;97737.75;;;23.75;99.82
28665;BME280;15850;47.524;7.814;2022-08-03T07:47:40;97719.09;;;23.76;99.81
28665;BME280;15850;47.524;7.814;2022-08-03T07:50:07;97467.16;;;22.22;98.67
28665;BME280;15850;47.524;7.814;2022-08-03T07:52:33;97702.72;;;23.81;97.90
28665;BME280;15850;47.524;7.814;2022-08-03T07:54:58;97667.69;;;23.87;97.06
28665;BME280;15850;47.524;7.814;2022-08-03T07:57:25;97733.91;;;24.32;97.67
28665;BME280;15850;47.524;7.814;2022-08-03T07:59:51;97607.28;;;23.72;95.67
28665;BME280;15850;47.524;7.814;2022-08-03T08:02:16;97579.47;;;23.52;95.39
28665;BME280;15850;47.524;7.814;2022-08-03T08:04:42;97676.78;;;24.68;94.99
28665;BME280;15850;47.524;7.814;2022-08-03T08:07:08;97725.06;;;25.14;93.29
28665;BME280;15850;47.524;7.814;2022-08-03T08:09:33;97607.81;;;24.43;91.25
28665;BME280;15850;47.524;7.814;2022-08-03T08:11:59;97722.38;;;25.26;89.84
28665;BME280;15850;47.524;7.814;2022-08-03T08:14:26;97709.84;;;25.35;89.55
28665;BME280;15850;47.524;7.814;2022-08-03T08:16:52;97666.84;;;25.19;87.91
28665;BME280;15850;47.524;7.814;2022-08-03T08:19:18;97718.97;;;25.35;88.18
28665;BME280;15850;47.524;7.814;2022-08-03T08:21:43;97656.31;;;25.11;91.16
28665;BME280;15850;47.524;7.814;2022-08-03T08:24:09;97603.25;;;24.85;86.48
28665;BME280;15850;47.524;7.814;2022-08-03T08:26:35;97703.56;;;25.63;87.16
28665;BME280;15850;47.524;7.814;2022-08-03T08:29:00;97690.22;;;25.71;84.54
28665;BME280;15850;47.524;7.814;2022-08-03T08:31:27;97724.41;;;26.04;83.74
28665;BME280;15850;47.524;7.814;2022-08-03T08:33:53;97690.56;;;25.89;83.27
28665;BME280;15850;47.524;7.814;2022-08-03T08:36:19;97717.38;;;25.99;83.27
28665;BME280;15850;47.524;7.814;2022-08-03T08:38:44;97693.78;;;25.88;82.66
28665;BME280;15850;47.524;7.814;2022-08-03T08:41:11;97710.53;;;26.17;82.24
28665;BME280;15850;47.524;7.814;2022-08-03T08:43:37;97697.72;;;26.19;81.67
28665;BME280;15850;47.524;7.814;2022-08-03T08:46:04;97706.88;;;26.49;79.72
28665;BME280;15850;47.524;7.814;2022-08-03T08:48:31;97705.41;;;26.57;81.87
28665;BME280;15850;47.524;7.814;2022-08-03T08:50:57;97707.34;;;26.73;80.24
28665;BME280;15850;47.524;7.814;2022-08-03T08:53:25;97701.09;;;26.82;77.89
28665;BME280;15850;47.524;7.814;2022-08-03T08:55:54;97692.16;;;26.74;76.74
28665;BME280;15850;47.524;7.814;2022-08-03T08:58:21;97705.78;;;26.98;77.26
28665;BME280;15850;47.524;7.814;2022-08-03T09:00:47;97703.00;;;27.10;76.31
28665;BME280;15850;47.524;7.814;2022-08-03T09:03:13;97699.78;;;27.12;75.03
28665;BME280;15850;47.524;7.814;2022-08-03T09:05:43;97697.75;;;27.12;75.10
28665;BME280;15850;47.524;7.814;2022-08-03T09:08:09;97694.81;;;27.41;74.73
28665;BME280;15850;47.524;7.814;2022-08-03T09:10:35;97533.88;;;26.36;74.44
28665;BME280;15850;47.524;7.814;2022-08-03T09:13:00;97676.38;;;27.44;70.28
28665;BME280;15850;47.524;7.814;2022-08-03T09:15:27;97704.63;;;27.72;71.62
28665;BME280;15850;47.524;7.814;2022-08-03T09:17:55;97697.44;;;27.71;69.71
28665;BME280;15850;47.524;7.814;2022-08-03T09:20:22;97672.56;;;27.51;69.16
28665;BME280;15850;47.524;7.814;2022-08-03T09:22:54;97629.53;;;27.13;60.56
28665;BME280;15850;47.524;7.814;2022-08-03T09:25:26;97699.59;;;27.79;62.76
28665;BME280;15850;47.524;7.814;2022-08-03T09:27:52;97666.69;;;27.83;62.85
28665;BME280;15850;47.524;7.814;2022-08-03T09:30:18;97696.50;;;27.99;61.74
28665;BME280;15850;47.524;7.814;2022-08-03T09:32:44;97697.56;;;27.80;61.38
28665;BME280;15850;47.524;7.814;2022-08-03T09:35:09;97679.34;;;27.75;62.50
28665;BME280;15850;47.524;7.814;2022-08-03T09:37:36;97616.25;;;27.52;62.61
28665;BME280;15850;47.524;7.814;2022-08-03T09:40:04;97696.44;;;28.12;61.19
28665;BME280;15850;47.524;7.814;2022-08-03T09:42:29;97653.81;;;27.86;62.69
28665;BME280;15850;47.524;7.814;2022-08-03T09:44:55;97697.72;;;27.98;62.28
28665;BME280;15850;47.524;7.814;2022-08-03T09:47:27;97653.44;;;27.97;60.82
28665;BME280;15850;47.524;7.814;2022-08-03T09:49:57;97691.03;;;28.18;62.79
28665;BME280;15850;47.524;7.814;2022-08-03T09:52:29;97664.28;;;28.17;60.93
28665;BME280;15850;47.524;7.814;2022-08-03T09:54:55;97675.88;;;28.28;59.07
28665;BME280;15850;47.524;7.814;2022-08-03T09:57:23;97669.59;;;28.15;58.68
28665;BME280;15850;47.524;7.814;2022-08-03T09:59:50;97679.00;;;28.30;59.63
28665;BME280;15850;47.524;7.814;2022-08-03T10:02:20;97678.47;;;28.66;55.92
28665;BME280;15850;47.524;7.814;2022-08-03T10:04:46;97674.69;;;28.60;54.70
28665;BME280;15850;47.524;7.814;2022-08-03T10:07:12;97407.59;;;26.83;55.42
28665;BME280;15850;47.524;7.814;2022-08-03T10:09:52;97680.66;;;28.71;55.67
28665;BME280;15850;47.524;7.814;2022-08-03T10:12:18;97668.19;;;28.63;56.25
28665;BME280;15850;47.524;7.814;2022-08-03T10:14:46;97418.72;;;27.18;56.19
28665;BME280;15850;47.524;7.814;2022-08-03T10:17:12;97639.34;;;28.85;55.74
28665;BME280;15850;47.524;7.814;2022-08-03T10:19:37;97667.69;;;28.96;51.72
28665;BME280;15850;47.524;7.814;2022-08-03T10:22:21;97665.03;;;28.92;52.12
28665;BME280;15850;47.524;7.814;2022-08-03T10:24:51;97623.41;;;28.63;51.78
28665;BME280;15850;47.524;7.814;2022-08-03T10:27:19;97662.84;;;29.27;51.08
28665;BME280;15850;47.524;7.814;2022-08-03T10:29:51;97628.22;;;29.03;49.95
28665;BME280;15850;47.524;7.814;2022-08-03T10:32:21;97614.22;;;29.03;50.62
28665;BME280;15850;47.524;7.814;2022-08-03T10:34:49;97648.69;;;29.31;50.19
28665;BME280;15850;47.524;7.814;2022-08-03T10:37:16;97648.25;;;29.42;49.55
28665;BME280;15850;47.524;7.814;2022-08-03T10:39:43;97612.34;;;29.00;50.32
28665;BME280;15850;47.524;7.814;2022-08-03T10:42:10;97648.25;;;29.42;50.62
28665;BME280;15850;47.524;7.814;2022-08-03T10:44:40;97550.53;;;28.85;45.07
28665;BME280;15850;47.524;7.814;2022-08-03T10:47:08;97644.16;;;29.24;45.35
28665;BME280;15850;47.524;7.814;2022-08-03T10:49:35;97637.00;;;29.33;45.67
28665;BME280;15850;47.524;7.814;2022-08-03T10:52:01;97626.09;;;29.16;45.56
28665;BME280;15850;47.524;7.814;2022-08-03T10:54:40;97641.22;;;29.46;44.95
28665;BME280;15850;47.524;7.814;2022-08-03T11:00:18;97586.91;;;29.44;43.80
28665;BME280;15850;47.524;7.814;2022-08-03T11:03:09;97629.94;;;29.78;44.21
28665;BME280;15850;47.524;7.814;2022-08-03T11:05:38;97623.06;;;29.97;42.02
28665;BME280;15850;47.524;7.814;2022-08-03T11:08:27;97619.28;;;30.37;40.80
28665;BME280;15850;47.524;7.814;2022-08-03T11:10:56;97568.03;;;30.00;41.05
28665;BME280;15850;47.524;7.814;2022-08-03T11:13:24;97522.88;;;29.88;39.36
28665;BME280;15850;47.524;7.814;2022-08-03T11:15:52;97580.00;;;30.28;38.28
28665;BME280;15850;47.524;7.814;2022-08-03T11:18:20;97604.47;;;30.09;38.92
28665;BME280;15850;47.524;7.814;2022-08-03T11:20:48;97620.56;;;29.99;38.17
28665;BME280;15850;47.524;7.814;2022-08-03T11:23:15;97623.06;;;29.97;38.67
28665;BME280;15850;47.524;7.814;2022-08-03T11:26:12;97614.03;;;29.84;38.09
28665;BME280;15850;47.524;7.814;2022-08-03T11:28:40;97592.84;;;29.83;38.18
28665;BME280;15850;47.524;7.814;2022-08-03T11:31:43;97602.09;;;30.44;37.86
28665;BME280;15850;47.524;7.814;2022-08-03T11:34:11;97604.16;;;30.16;38.56
28665;BME280;15850;47.524;7.814;2022-08-03T11:39:39;97582.03;;;30.09;38.73
28665;BME280;15850;47.524;7.814;2022-08-03T11:45:06;97602.13;;;30.26;39.24
28665;BME280;15850;47.524;7.814;2022-08-03T11:47:36;97581.97;;;30.46;39.23
28665;BME280;15850;47.524;7.814;2022-08-03T11:50:04;97599.09;;;30.57;38.26
28665;BME280;15850;47.524;7.814;2022-08-03T11:52:33;97597.69;;;30.52;37.72
28665;BME280;15850;47.524;7.814;2022-08-03T11:54:59;97528.75;;;30.09;37.63
28665;BME280;15850;47.524;7.814;2022-08-03T11:57:29;97587.34;;;30.67;37.89
28665;BME280;15850;47.524;7.814;2022-08-03T11:59:54;97422.16;;;29.66;36.87
28665;BME280;15850;47.524;7.814;2022-08-03T12:02:20;97412.19;;;29.56;37.09
28665;BME280;15850;47.524;7.814;2022-08-03T12:04:49;97531.06;;;30.19;38.12
28665;BME280;15850;47.524;7.814;2022-08-03T12:07:16;97520.47;;;30.24;36.93
28665;BME280;15850;47.524;7.814;2022-08-03T12:09:41;97588.66;;;30.91;41.69
28665;BME280;15850;47.524;7.814;2022-08-03T12:12:07;97575.94;;;31.04;37.64
28665;BME280;15850;47.524;7.814;2022-08-03T12:14:33;97580.78;;;31.28;38.28
28665;BME280;15850;47.524;7.814;2022-08-03T12:16:58;97580.75;;;31.37;35.28
28665;BME280;15850;47.524;7.814;2022-08-03T12:19:24;97581.19;;;31.59;35.82
28665;BME280;15850;47.524;7.814;2022-08-03T12:21:49;97564.22;;;31.30;34.42
28665;BME280;15850;47.524;7.814;2022-08-03T12:24:16;97572.34;;;31.28;35.20
28665;BME280;15850;47.524;7.814;2022-08-03T12:26:43;97581.13;;;31.21;34.14
28665;BME280;15850;47.524;7.814;2022-08-03T12:29:15;97550.94;;;30.82;34.24
28665;BME280;15850;47.524;7.814;2022-08-03T12:31:41;97580.00;;;31.03;34.79
28665;BME280;15850;47.524;7.814;2022-08-03T12:34:06;97413.91;;;30.05;34.12
28665;BME280;15850;47.524;7.814;2022-08-03T12:36:33;97568.25;;;31.29;34.00
28665;BME280;15850;47.524;7.814;2022-08-03T12:39:02;97570.41;;;31.43;34.04
28665;BME280;15850;47.524;7.814;2022-08-03T12:41:31;97548.78;;;31.01;33.79
28665;BME280;15850;47.524;7.814;2022-08-03T12:43:58;97543.59;;;31.09;33.35
28665;BME280;15850;47.524;7.814;2022-08-03T12:46:28;97573.41;;;31.30;33.52
28665;BME280;15850;47.524;7.814;2022-08-03T12:49:00;97560.38;;;31.42;32.67
28665;BME280;15850;47.524;7.814;2022-08-03T12:51:27;97469.25;;;30.95;32.10
28665;BME280;15850;47.524;7.814;2022-08-03T12:53:53;97445.00;;;30.83;31.07
28665;BME280;15850;47.524;7.814;2022-08-03T12:56:19;97558.50;;;31.63;30.76
28665;BME280;15850;47.524;7.814;2022-08-03T12:58:46;97557.00;;;31.92;29.74
28665;BME280;15850;47.524;7.814;2022-08-03T13:01:12;97560.22;;;31.99;28.45
28665;BME280;15850;47.524;7.814;2022-08-03T13:03:39;97534.69;;;31.88;28.44
28665;BME280;15850;47.524;7.814;2022-08-03T13:06:10;97557.28;;;32.09;28.29